Nearby METAR Reports

 

KMLE - Omaha/Millard, Nebraska, USA
Distance from station: NE 1mi, 2km
Updated: Fri, 23-Feb-2018 1:35pm CST
Partly cloudy
Partly cloudy
 Wind from NNW
Wind: NNW 7 mph , 11 km/h
Temperature: 28°F , -2°C
Wind Chill: 21°F , -6°C
Dew Point: 23°F , -5°C
Humidity: 80%
Barometer: 30.31 inHg , 1026.4 hPa
Clouds: Partly cloudy
Visibility: 10 miles , 16 km
Cloud details: Partly cloudy 1400 ft
2018/02/23 19:35 KMLE 231935Z AUTO 34006KT 10SM SCT014 M02/M05 A3031 RMK AO2 T10161051
KOFF - Offutt Afb/Belle, Nebraska, USA
Distance from station: ESE 12mi, 20km
Updated: Fri, 23-Feb-2018 1:56pm CST
Mostly cloudy
Mostly cloudy
 Wind from NNW
Wind: NNW 6 mph , 9 km/h
Temperature: 30°F , -1°C
Wind Chill: 24°F , -4°C
Dew Point: 25°F , -4°C
Humidity: 80%
Barometer: 30.29 inHg , 1025.7 hPa
Clouds: Mostly cloudy
Visibility: 10 miles , 16 km
Cloud details: Mostly cloudy 1500 ft
2018/02/23 19:56 KOFF 231956Z 33005KT 10SM BKN015 M01/M04 A3029 RMK AO2A BKN015 V OVC SLP274 T10061040 $
 
KOMA - Omaha/Eppley, Nebraska, USA
Distance from station: NE 15mi, 24km
Updated: Fri, 23-Feb-2018 12:52pm CST
Mostly cloudy
Mostly cloudy
 Wind from N
Wind: N 13 mph , 20 km/h
Temperature: 27°F , -3°C
Wind Chill: 16°F , -9°C
Dew Point: 21°F , -6°C
Humidity: 80%
Barometer: 30.33 inHg , 1027.1 hPa
Clouds: Mostly cloudy
Visibility: 7 miles , 11 km
Cloud details: Mostly cloudy 1400 ft
2018/02/23 18:52 KOMA 231852Z 36011KT 7SM BKN014 M03/M06 A3033 RMK AO2 SLP282 T10281056
KBTA - Blair Muni, Nebraska, USA
Distance from station: N 16mi, 25km
Updated: Fri, 23-Feb-2018 1:55pm CST
Overcast
Overcast
 Wind from NW
Wind: NW 8 mph , 13 km/h
Temperature: 27°F , -3°C
Wind Chill: 19°F , -7°C
Dew Point: 23°F , -5°C
Humidity: 86%
Barometer: 30.28 inHg , 1025.4 hPa
Clouds: Overcast
Visibility: 10 miles , 16 km
Cloud details: Overcast 1000 ft
2018/02/23 19:55 KBTA 231955Z AUTO 32007KT 10SM OVC010 M03/M05 A3028 RMK AO2 LTG DSNT S T10341053
 
KCBF - Council Bluffs, Iowa, USA
Distance from station: ENE 20mi, 32km
Updated: Fri, 23-Feb-2018 1:55pm CST
Mostly cloudy
Mostly cloudy
 Wind from WNW
Wind: WNW 8 mph , 13 km/h
Temperature: 28°F , -2°C
Wind Chill: 20°F , -7°C
Dew Point: 27°F , -3°C
Humidity: 93%
Barometer: 30.28 inHg , 1025.4 hPa
Clouds: Mostly cloudy
Visibility: 10 miles , 16 km
Cloud details: Mostly cloudy 1300 ft
2018/02/23 19:55 KCBF 231955Z AUTO 30007KT 10SM BKN013 M02/M03 A3028 RMK AO2
KPMV - Plattsmouth Muni, Nebraska, USA
Distance from station: SE 20mi, 32km
Updated: Fri, 23-Feb-2018 1:35pm CST
Mostly cloudy
Mostly cloudy
 Wind from NW
Wind: NW 8 mph , 13 km/h
Temperature: 30°F , -1°C
Wind Chill: 22°F , -6°C
Dew Point: 25°F , -4°C
Humidity: 80%
Barometer: 30.29 inHg , 1025.7 hPa
Clouds: Mostly cloudy
Visibility: 10 miles , 16 km
Cloud details: Mostly cloudy 1200 ft
2018/02/23 19:35 KPMV 231935Z AUTO 31007KT 10SM BKN012 M01/M04 A3029 RMK AO2 T10111036
 
KAHQ - Wahoo, Nebraska, USA
Distance from station: W 25mi, 40km
Updated: Fri, 23-Feb-2018 1:55pm CST
Overcast
Overcast
 Wind from N
Wind: N 10 mph , 17 km/h
Temperature: 25°F , -4°C
Wind Chill: 15°F , -9°C
Dew Point: 21°F , -6°C
Humidity: 86%
Barometer: 30.31 inHg , 1026.4 hPa
Clouds: Overcast
Visibility: 10 miles , 16 km
Cloud details: Overcast 1100 ft
2018/02/23 19:55 KAHQ 231955Z AUTO 36009KT 10SM OVC011 M04/M06 A3031 RMK AO2 T10361062
KFET - Fremont Muni Arp, Nebraska, USA
Distance from station: NW 27mi, 43km
Updated: Fri, 23-Feb-2018 1:35pm CST
Overcast
Overcast
 Wind from calm
Wind: Calm
Temperature: 25°F , -4°C
Dew Point: 21°F , -6°C
Humidity: 86%
Barometer: 30.32 inHg , 1026.8 hPa
Clouds: Overcast
Visibility: 10 miles , 16 km
Cloud details: Overcast 1100 ft
2018/02/23 19:35 KFET 231935Z AUTO 00000KT 10SM OVC011 M04/M06 A3032 RMK AO2 T10361060
 
KTQE - Tekamah, Nebraska, USA
Distance from station: N 40mi, 64km
Updated: Fri, 23-Feb-2018 1:54pm CST
Overcast
Overcast
 Wind from NW
Wind: NW 6 mph , 9 km/h
Temperature: 27°F , -3°C
Wind Chill: 20°F , -7°C
Dew Point: 21°F , -6°C
Humidity: 80%
Barometer: 30.32 inHg , 1026.8 hPa
Clouds: Overcast
Visibility: 10 miles , 16 km
Cloud details: Overcast 1300 ft
2018/02/23 19:54 KTQE 231954Z AUTO 32005KT 10SM OVC013 M03/M06 A3032 RMK AO2 SLP277 T10331061
KLNK - Lincoln, Nebraska, USA
Distance from station: SW 41mi, 65km
Updated: Fri, 23-Feb-2018 1:54pm CST
Mostly cloudy
Mostly cloudy
 Wind from NNE
Wind: NNE 9 mph , 15 km/h
Temperature: 32°F , 0°C
Wind Chill: 24°F , -4°C
Dew Point: 27°F , -3°C
Humidity: 80%
Barometer: 30.30 inHg , 1026.1 hPa
Clouds: Mostly cloudy
Visibility: 10 miles , 16 km
Cloud details: Mostly cloudy 1500 ft
2018/02/23 19:54 KLNK 231954Z 03008KT 10SM BKN015 00/M03 A3030 RMK AO2 SLP274 T00001033
 
KAFK - Nebraska City, Nebraska, USA
Distance from station: SSE 43mi, 70km
Updated: Fri, 23-Feb-2018 1:35pm CST
Partly cloudy
Partly cloudy
 Wind from N
Wind: N 6 mph , 9 km/h
Temperature: 32°F , 0°C
Wind Chill: 26°F , -3°C
Dew Point: 30°F , -1°C
Humidity: 93%
Barometer: 30.30 inHg , 1026.1 hPa
Clouds: Partly cloudy
Visibility: 7 miles , 11 km
Cloud details: Partly cloudy 1100 ft
2018/02/23 19:35 KAFK 231935Z AUTO 35005KT 7SM SCT011 00/M01 A3030 RMK AO2 T00001013
KRDK - Red Oak, Iowa, USA
Distance from station: ESE 47mi, 75km
Updated: Fri, 23-Feb-2018 1:55pm CST
Mostly cloudy
Mostly cloudy
 Wind from NNW
Wind: NNW 7 mph , 11 km/h, Gust: 13 mph , 20 km/h
Temperature: 34°F , 1°C
Wind Chill: 28°F , -2°C
Dew Point: 27°F , -3°C
Humidity: 75%
Barometer: 30.30 inHg , 1026.1 hPa
Clouds: Mostly cloudy
Visibility: 10 miles , 16 km
Cloud details: Mostly cloudy 1500 ft
2018/02/23 19:55 KRDK 231955Z AUTO 33006G11KT 10SM BKN015 01/M03 A3030 RMK AO2
 
KSDA - Shenandoah Muni, Iowa, USA
Distance from station: SE 48mi, 77km
Updated: Fri, 23-Feb-2018 1:55pm CST
Partly cloudy
Partly cloudy
 Wind from WNW
Wind: WNW 3 mph , 6 km/h
Temperature: 34°F , 1°C
Dew Point: 28°F , -2°C
Humidity: 81%
Barometer: 30.32 inHg , 1026.8 hPa
Clouds: Partly cloudy
Visibility: 9 miles , 14 km
Cloud details: Partly cloudy 1500 ft
2018/02/23 19:55 KSDA 231955Z AUTO 29003KT 9SM SCT015 01/M02 A3032 RMK AO2 P0001
KHNR - Harlan Muni, Iowa, USA
Distance from station: NE 49mi, 80km
Updated: Fri, 23-Feb-2018 1:55pm CST
Mostly cloudy
Mostly cloudy
 Wind from NW
Wind: NW 9 mph , 15 km/h
Temperature: 27°F , -3°C
Wind Chill: 18°F , -8°C
Dew Point: 25°F , -4°C
Humidity: 93%
Barometer: 30.32 inHg , 1026.8 hPa
Clouds: Mostly cloudy
Visibility: 10 miles , 16 km
Cloud details: Mostly cloudy 1300 ft
2018/02/23 19:55 KHNR 231955Z AUTO 31008KT 10SM BKN013 M03/M04 A3032 RMK AO2